createdAt,value
2019-03-04T00:00:04.777Z,20.88
2019-03-04T00:01:04.859Z,20.88
2019-03-04T00:02:04.757Z,20.82
2019-03-04T00:03:04.743Z,20.98
2019-03-04T00:04:04.734Z,20.78
2019-03-04T00:05:04.722Z,20.89
2019-03-04T00:06:04.713Z,20.88
2019-03-04T00:07:04.831Z,20.77
2019-03-04T00:08:04.717Z,20.77
2019-03-04T00:09:04.677Z,20.80
2019-03-04T00:10:04.669Z,20.90
2019-03-04T00:11:04.666Z,20.83
2019-03-04T00:12:04.646Z,20.85
2019-03-04T00:13:04.833Z,20.85
2019-03-04T00:14:04.624Z,20.83
2019-03-04T00:15:04.612Z,20.80
2019-03-04T00:16:04.604Z,20.77
2019-03-04T00:17:04.589Z,20.86
2019-03-04T00:18:04.580Z,20.77
2019-03-04T00:19:04.878Z,20.83
2019-03-04T00:20:04.559Z,20.85
2019-03-04T00:21:04.547Z,20.80
2019-03-04T00:22:04.544Z,20.78
2019-03-04T00:23:04.530Z,20.78
2019-03-04T00:24:04.515Z,20.75
2019-03-04T00:25:04.600Z,20.75
2019-03-04T00:26:04.495Z,20.82
2019-03-04T00:27:04.483Z,20.82
2019-03-04T00:28:04.475Z,20.74
2019-03-04T00:29:04.461Z,20.77
2019-03-04T00:30:04.451Z,20.67
2019-03-04T00:31:04.646Z,20.73
2019-03-04T00:32:04.429Z,20.75
2019-03-04T00:33:04.447Z,20.75
2019-03-04T00:34:04.409Z,20.67
2019-03-04T00:35:04.396Z,20.73
2019-03-04T00:36:04.394Z,20.64
2019-03-04T00:37:04.591Z,20.71
2019-03-04T00:38:04.373Z,20.67
2019-03-04T00:39:04.355Z,20.74
2019-03-04T00:40:04.358Z,20.70
2019-03-04T00:41:04.343Z,20.63
2019-03-04T00:42:04.320Z,20.64
2019-03-04T00:43:04.414Z,20.66
2019-03-04T00:44:04.300Z,20.63
2019-03-04T00:45:04.292Z,20.59
2019-03-04T00:46:04.279Z,20.59
2019-03-04T00:47:04.269Z,20.58
2019-03-04T00:48:04.256Z,20.53
2019-03-04T00:49:04.364Z,20.55
2019-03-04T00:50:04.242Z,20.63
2019-03-04T00:51:04.226Z,20.59
2019-03-04T00:52:04.220Z,20.48
2019-03-04T00:53:04.202Z,20.53
2019-03-04T00:54:04.195Z,20.48
2019-03-04T00:55:04.368Z,20.52
2019-03-04T00:56:04.174Z,20.52
2019-03-04T00:57:04.165Z,20.55
2019-03-04T00:58:04.159Z,20.56
2019-03-04T00:59:04.140Z,20.55
2019-03-04T01:00:04.129Z,20.46
2019-03-04T01:01:04.421Z,20.44
2019-03-04T01:02:04.106Z,20.50
2019-03-04T01:03:04.110Z,20.37
2019-03-04T01:04:04.112Z,20.40
2019-03-04T01:05:04.073Z,20.42
2019-03-04T01:06:04.065Z,20.27
2019-03-04T01:07:04.147Z,20.24
2019-03-04T01:08:04.043Z,20.19
2019-03-04T01:09:04.044Z,20.19
2019-03-04T01:10:04.024Z,20.27
2019-03-04T01:11:04.012Z,20.22
2019-03-04T01:12:04.000Z,20.21
2019-03-04T01:13:04.084Z,20.14
2019-03-04T01:14:03.983Z,20.11
2019-03-04T01:15:03.969Z,20.10
2019-03-04T01:16:03.966Z,20.12
2019-03-04T01:17:03.949Z,20.12
2019-03-04T01:18:03.940Z,20.08
2019-03-04T01:19:04.223Z,20.12
2019-03-04T01:20:03.916Z,20.14
2019-03-04T01:21:03.904Z,20.11
2019-03-04T01:22:03.896Z,20.11
2019-03-04T01:23:03.888Z,20.15
2019-03-04T01:24:03.872Z,20.18
2019-03-04T01:25:03.957Z,20.17
2019-03-04T01:26:03.849Z,20.15
2019-03-04T01:27:03.840Z,20.17
2019-03-04T01:28:03.834Z,20.14
2019-03-04T01:29:03.821Z,20.18
2019-03-04T01:30:03.810Z,20.12
2019-03-04T01:31:03.907Z,20.15
2019-03-04T01:32:03.787Z,20.15
2019-03-04T01:33:03.774Z,20.14
2019-03-04T01:34:03.777Z,20.11
2019-03-04T01:35:03.756Z,20.15
2019-03-04T01:36:03.747Z,20.10
2019-03-04T01:37:04.010Z,20.11
2019-03-04T01:38:03.722Z,20.11
2019-03-04T01:39:03.714Z,20.08
2019-03-04T01:40:03.699Z,20.08
2019-03-04T01:41:03.689Z,20.12
2019-03-04T01:42:03.681Z,20.14
2019-03-04T01:43:03.846Z,20.10
2019-03-04T01:44:03.660Z,20.11
2019-03-04T01:45:03.651Z,20.14
2019-03-04T01:46:03.665Z,20.11
2019-03-04T01:47:03.634Z,20.12
2019-03-04T01:48:03.627Z,20.15
2019-03-04T01:49:03.721Z,20.12
2019-03-04T01:50:04.334Z,20.10
2019-03-04T01:51:03.583Z,20.14
2019-03-04T01:52:03.572Z,20.18
2019-03-04T01:53:03.566Z,20.15
2019-03-04T01:54:03.549Z,20.14
2019-03-04T01:55:03.922Z,20.12
2019-03-04T01:56:03.534Z,20.21
2019-03-04T01:57:03.540Z,20.15
2019-03-04T01:58:03.512Z,20.15
2019-03-04T01:59:04.328Z,20.15
2019-03-04T02:00:03.493Z,20.21
2019-03-04T02:01:03.651Z,20.14
2019-03-04T02:02:03.474Z,20.12
2019-03-04T02:03:03.519Z,20.15
2019-03-04T02:04:03.450Z,20.10
2019-03-04T02:05:03.445Z,20.11
2019-03-04T02:06:03.424Z,20.11
2019-03-04T02:07:03.520Z,20.10
2019-03-04T02:08:04.330Z,20.12
2019-03-04T02:09:03.399Z,20.12
2019-03-04T02:10:03.404Z,20.10
2019-03-04T02:11:03.387Z,20.04
2019-03-04T02:12:03.438Z,20.02
2019-03-04T02:13:03.542Z,20.00
2019-03-04T02:14:03.338Z,19.99
2019-03-04T02:15:04.327Z,19.99
2019-03-04T02:16:03.333Z,19.97
2019-03-04T02:17:03.303Z,20.03
2019-03-04T02:18:03.293Z,19.94
2019-03-04T02:19:03.385Z,19.96
2019-03-04T02:20:03.272Z,20.00
2019-03-04T02:21:03.264Z,20.00
2019-03-04T02:22:03.259Z,19.89
2019-03-04T02:23:03.239Z,19.93
2019-03-04T02:24:03.228Z,19.94
2019-03-04T02:25:03.315Z,19.90
2019-03-04T02:26:03.208Z,19.99
2019-03-04T02:27:03.202Z,19.89
2019-03-04T02:28:03.192Z,19.92
2019-03-04T02:29:03.175Z,19.87
2019-03-04T02:30:03.168Z,19.96
2019-03-04T02:31:03.331Z,19.96
2019-03-04T02:32:03.146Z,19.82
2019-03-04T02:33:03.134Z,19.87
2019-03-04T02:34:03.125Z,19.85
2019-03-04T02:35:03.115Z,19.93
2019-03-04T02:36:03.102Z,19.82
2019-03-04T02:37:03.208Z,19.82
2019-03-04T02:38:03.084Z,19.93
2019-03-04T02:39:03.068Z,19.77
2019-03-04T02:40:03.066Z,19.82
2019-03-04T02:41:03.056Z,19.82
2019-03-04T02:42:03.043Z,19.84
2019-03-04T02:43:03.202Z,19.82
2019-03-04T02:44:03.021Z,19.84
2019-03-04T02:45:03.008Z,19.77
2019-03-04T02:46:03.010Z,19.78
2019-03-04T02:47:02.991Z,19.77
2019-03-04T02:48:03.009Z,19.78
2019-03-04T02:49:03.153Z,19.79
2019-03-04T02:50:02.962Z,19.84
2019-03-04T02:51:02.943Z,19.79
2019-03-04T02:52:02.942Z,19.74
2019-03-04T02:53:02.919Z,19.82
2019-03-04T02:54:02.912Z,19.84
2019-03-04T02:55:02.993Z,19.84
2019-03-04T02:56:02.890Z,19.81
2019-03-04T02:57:02.893Z,19.78
2019-03-04T02:58:02.872Z,19.82
2019-03-04T02:59:02.854Z,19.90
2019-03-04T03:00:02.852Z,19.84
2019-03-04T03:01:02.988Z,19.79
2019-03-04T03:02:02.824Z,19.85
2019-03-04T03:03:02.812Z,19.87
2019-03-04T03:04:02.804Z,19.85
2019-03-04T03:05:02.805Z,19.87
2019-03-04T03:06:02.796Z,19.77
2019-03-04T03:07:02.875Z,19.84
2019-03-04T03:08:02.760Z,19.79
2019-03-04T03:09:02.754Z,19.82
2019-03-04T03:10:02.741Z,19.82
2019-03-04T03:11:02.726Z,19.82
2019-03-04T03:12:02.714Z,19.72
2019-03-04T03:13:02.985Z,19.82
2019-03-04T03:14:02.697Z,19.72
2019-03-04T03:15:02.686Z,19.77
2019-03-04T03:16:02.674Z,19.77
2019-03-04T03:17:02.671Z,19.79
2019-03-04T03:18:02.665Z,19.75
2019-03-04T03:19:02.748Z,19.81
2019-03-04T03:20:02.641Z,19.72
2019-03-04T03:21:02.635Z,19.74
2019-03-04T03:22:02.611Z,19.71
2019-03-04T03:23:02.601Z,19.72
2019-03-04T03:24:02.599Z,19.72
2019-03-04T03:25:02.746Z,19.75
2019-03-04T03:26:02.567Z,19.74
2019-03-04T03:27:02.555Z,19.71
2019-03-04T03:28:02.545Z,19.71
2019-03-04T03:29:02.536Z,19.59
2019-03-04T03:30:02.527Z,19.66
2019-03-04T03:31:02.679Z,19.71
2019-03-04T03:32:02.503Z,19.64
2019-03-04T03:33:02.669Z,19.60
2019-03-04T03:34:02.484Z,19.63
2019-03-04T03:35:07.457Z,19.62
2019-03-04T03:36:03.616Z,19.63
2019-03-04T03:37:02.451Z,19.71
2019-03-04T03:38:02.445Z,19.64
2019-03-04T03:39:02.427Z,19.62
2019-03-04T03:40:02.421Z,19.57
2019-03-04T03:41:02.407Z,19.62
2019-03-04T03:42:02.533Z,19.74
2019-03-04T03:43:02.388Z,19.66
2019-03-04T03:44:02.373Z,19.64
2019-03-04T03:45:02.373Z,19.63
2019-03-04T03:46:02.350Z,19.62
2019-03-04T03:47:02.342Z,19.60
2019-03-04T03:48:02.512Z,19.59
2019-03-04T03:49:02.327Z,19.66
2019-03-04T03:50:02.317Z,19.60
2019-03-04T03:51:02.303Z,19.67
2019-03-04T03:52:02.287Z,19.66
2019-03-04T03:53:02.277Z,19.71
2019-03-04T03:54:02.372Z,19.74
2019-03-04T03:55:02.275Z,19.74
2019-03-04T03:56:02.247Z,19.70
2019-03-04T03:57:02.234Z,19.66
2019-03-04T03:58:02.224Z,19.74
2019-03-04T03:59:02.219Z,19.75
2019-03-04T04:00:02.313Z,19.70
2019-03-04T04:01:02.199Z,19.72
2019-03-04T04:02:02.183Z,19.74
2019-03-04T04:03:02.179Z,19.81
2019-03-04T04:04:02.161Z,19.82
2019-03-04T04:05:02.196Z,19.84
2019-03-04T04:06:02.413Z,19.81
2019-03-04T04:07:02.129Z,19.81
2019-03-04T04:08:02.140Z,19.82
2019-03-04T04:09:02.109Z,19.70
2019-03-04T04:10:02.098Z,19.82
2019-03-04T04:11:02.085Z,19.77
2019-03-04T04:12:02.243Z,19.74
2019-03-04T04:13:02.069Z,19.74
2019-03-04T04:14:02.056Z,19.72
2019-03-04T04:15:02.121Z,19.74
2019-03-04T04:16:02.034Z,19.70
2019-03-04T04:17:02.020Z,19.77
2019-03-04T04:18:02.114Z,19.77
2019-03-04T04:19:02.001Z,19.74
2019-03-04T04:20:02.015Z,19.71
2019-03-04T04:21:01.983Z,19.75
2019-03-04T04:22:01.968Z,19.75
2019-03-04T04:23:01.962Z,19.74
2019-03-04T04:24:02.231Z,19.71
2019-03-04T04:25:01.949Z,19.75
2019-03-04T04:26:01.923Z,19.74
2019-03-04T04:27:01.927Z,19.79
2019-03-04T04:28:01.903Z,19.74
2019-03-04T04:29:01.893Z,19.82
2019-03-04T04:30:02.203Z,19.70
2019-03-04T04:31:01.906Z,19.75
2019-03-04T04:32:01.856Z,19.74
2019-03-04T04:33:01.878Z,19.77
2019-03-04T04:34:01.836Z,19.75
2019-03-04T04:35:01.826Z,19.74
2019-03-04T04:36:01.953Z,19.77
2019-03-04T04:37:01.805Z,19.85
2019-03-04T04:38:01.794Z,19.74
2019-03-04T04:39:01.781Z,19.81
2019-03-04T04:40:01.780Z,19.81
2019-03-04T04:41:01.760Z,19.79
2019-03-04T04:42:01.859Z,19.77
2019-03-04T04:43:01.741Z,19.74
2019-03-04T04:44:01.728Z,19.70
2019-03-04T04:45:01.721Z,19.79
2019-03-04T04:46:01.711Z,19.79
2019-03-04T04:47:01.697Z,19.72
2019-03-04T04:48:01.844Z,19.72
2019-03-04T04:49:01.677Z,19.77
2019-03-04T04:50:01.666Z,19.74
2019-03-04T04:51:01.655Z,19.74
2019-03-04T04:52:01.642Z,19.81
2019-03-04T04:53:01.689Z,19.72
2019-03-04T04:54:01.935Z,19.85
2019-03-04T04:55:01.611Z,19.81
2019-03-04T04:56:01.609Z,19.72
2019-03-04T04:57:01.589Z,19.85
2019-03-04T04:58:01.579Z,19.75
2019-03-04T04:59:01.569Z,19.81
2019-03-04T05:00:01.667Z,19.82
2019-03-04T05:01:01.545Z,19.79
2019-03-04T05:02:01.536Z,19.78
2019-03-04T05:03:01.525Z,19.81
2019-03-04T05:04:01.519Z,19.74
2019-03-04T05:05:01.502Z,19.75
2019-03-04T05:06:01.666Z,19.84
2019-03-04T05:07:01.490Z,19.75
2019-03-04T05:08:01.472Z,19.79
2019-03-04T05:09:01.462Z,19.78
2019-03-04T05:10:01.448Z,19.84
2019-03-04T05:11:01.442Z,19.77
2019-03-04T05:12:01.524Z,19.72
2019-03-04T05:13:01.423Z,19.81
2019-03-04T05:14:01.408Z,19.71
2019-03-04T05:15:01.396Z,19.84
2019-03-04T05:16:01.385Z,19.77
2019-03-04T05:17:01.381Z,19.85
2019-03-04T05:18:01.468Z,19.85
2019-03-04T05:19:01.353Z,19.78
2019-03-04T05:20:01.352Z,19.87
2019-03-04T05:21:01.335Z,19.84
2019-03-04T05:22:01.322Z,19.81
2019-03-04T05:23:01.318Z,19.79
2019-03-04T05:24:01.398Z,19.84
2019-03-04T05:25:01.290Z,19.79
2019-03-04T05:26:01.280Z,19.71
2019-03-04T05:27:01.269Z,19.82
2019-03-04T05:28:01.258Z,19.82
2019-03-04T05:29:01.247Z,19.84
2019-03-04T05:30:01.549Z,19.79
2019-03-04T05:31:01.224Z,19.84
2019-03-04T05:32:01.214Z,19.79
2019-03-04T05:33:01.203Z,19.84
2019-03-04T05:34:01.192Z,19.74
2019-03-04T05:35:01.196Z,19.84
2019-03-04T05:36:01.379Z,19.87
2019-03-04T05:37:01.161Z,19.79
2019-03-04T05:38:01.152Z,19.78
2019-03-04T05:39:01.140Z,19.72
2019-03-04T05:40:01.127Z,19.81
2019-03-04T05:41:01.119Z,19.74
2019-03-04T05:42:01.203Z,19.84
2019-03-04T05:43:01.096Z,19.79
2019-03-04T05:44:01.083Z,19.75
2019-03-04T05:45:01.074Z,19.75
2019-03-04T05:46:01.062Z,19.79
2019-03-04T05:47:01.054Z,19.67
2019-03-04T05:48:01.150Z,19.64
2019-03-04T05:49:01.036Z,19.63
2019-03-04T05:50:01.026Z,19.67
2019-03-04T05:51:01.019Z,19.63
2019-03-04T05:52:01.005Z,19.59
2019-03-04T05:53:00.995Z,19.74
2019-03-04T05:54:01.153Z,19.60
2019-03-04T05:55:00.970Z,19.70
2019-03-04T05:56:00.961Z,19.64
2019-03-04T05:57:00.958Z,19.66
2019-03-04T05:58:00.943Z,19.72
2019-03-04T05:59:00.938Z,19.60
2019-03-04T06:00:01.414Z,19.71
2019-03-04T06:01:00.907Z,19.64
2019-03-04T06:02:00.895Z,19.64
2019-03-04T06:03:00.889Z,19.67
2019-03-04T06:04:00.884Z,19.67
2019-03-04T06:05:00.883Z,19.63
2019-03-04T06:06:00.956Z,19.67
2019-03-04T06:07:00.843Z,19.57
2019-03-04T06:08:00.844Z,19.57
2019-03-04T06:09:00.826Z,19.60
2019-03-04T06:10:00.820Z,19.59
2019-03-04T06:11:00.800Z,19.63
2019-03-04T06:12:00.900Z,19.64
2019-03-04T06:13:00.779Z,19.60
2019-03-04T06:14:00.772Z,19.62
2019-03-04T06:15:00.760Z,19.63
2019-03-04T06:16:00.747Z,19.62
2019-03-04T06:17:00.734Z,19.70
2019-03-04T06:18:00.891Z,19.64
2019-03-04T06:19:00.716Z,19.77
2019-03-04T06:20:00.702Z,19.75
2019-03-04T06:21:00.722Z,19.67
2019-03-04T06:22:00.679Z,19.72
2019-03-04T06:23:00.676Z,19.71
2019-03-04T06:24:00.767Z,19.71
2019-03-04T06:25:00.648Z,19.70
2019-03-04T06:26:00.639Z,19.74
2019-03-04T06:27:00.636Z,19.78
2019-03-04T06:28:00.632Z,19.74
2019-03-04T06:29:00.607Z,19.81
2019-03-04T06:30:00.693Z,19.70
2019-03-04T06:31:00.592Z,19.84
2019-03-04T06:32:00.574Z,19.85
2019-03-04T06:33:00.568Z,19.77
2019-03-04T06:34:00.557Z,19.79
2019-03-04T06:35:00.543Z,19.89
2019-03-04T06:36:00.795Z,19.90
2019-03-04T06:37:00.522Z,19.89
2019-03-04T06:38:00.513Z,19.94
2019-03-04T06:39:00.500Z,19.96
2019-03-04T06:40:00.495Z,19.94
2019-03-04T06:41:00.479Z,19.96
2019-03-04T06:42:00.769Z,19.97
2019-03-04T06:43:00.457Z,20.00
2019-03-04T06:44:00.447Z,20.04
2019-03-04T06:45:00.522Z,20.11
2019-03-04T06:46:00.442Z,20.07
2019-03-04T06:47:00.452Z,20.11
2019-03-04T06:48:00.562Z,20.12
2019-03-04T06:49:00.392Z,20.11
2019-03-04T06:50:00.392Z,20.11
2019-03-04T06:51:00.373Z,20.11
2019-03-04T06:52:00.367Z,20.26
2019-03-04T06:53:00.349Z,20.29
2019-03-04T06:54:00.613Z,20.30
2019-03-04T06:55:00.343Z,20.26
2019-03-04T06:56:00.319Z,20.22
2019-03-04T06:57:00.309Z,20.24
2019-03-04T06:58:00.296Z,20.30
2019-03-04T06:59:00.290Z,20.34
2019-03-04T07:00:00.406Z,20.26
2019-03-04T07:01:00.267Z,20.27
2019-03-04T07:02:00.255Z,20.27
2019-03-04T07:03:00.246Z,20.42
2019-03-04T07:04:00.232Z,20.39
2019-03-04T07:05:00.352Z,20.37
2019-03-04T07:06:00.335Z,20.44
2019-03-04T07:07:00.202Z,20.44
2019-03-04T07:08:00.190Z,20.40
2019-03-04T07:09:00.186Z,20.49
2019-03-04T07:10:00.340Z,20.49
2019-03-04T07:11:00.154Z,20.50
2019-03-04T07:12:00.386Z,20.53
2019-03-04T07:13:00.136Z,20.55
2019-03-04T07:14:00.121Z,20.48
2019-03-04T07:15:00.308Z,20.53
2019-03-04T07:16:00.105Z,20.49
2019-03-04T07:17:00.091Z,20.46
2019-03-04T07:18:00.259Z,20.53
2019-03-04T07:19:00.068Z,20.49
2019-03-04T07:20:00.325Z,20.49
2019-03-04T07:21:00.048Z,20.49
2019-03-04T07:22:00.036Z,20.46
2019-03-04T07:23:00.024Z,20.48
2019-03-04T07:24:00.160Z,20.48
2019-03-04T07:25:00.004Z,20.49
2019-03-04T07:26:00.046Z,20.50
2019-03-04T07:26:59.983Z,20.53
2019-03-04T07:27:59.971Z,20.49
2019-03-04T07:28:59.961Z,20.49
2019-03-04T07:30:00.306Z,20.49
2019-03-04T07:30:59.940Z,20.50
2019-03-04T07:31:59.929Z,20.50
2019-03-04T07:32:59.920Z,20.55
2019-03-04T07:33:59.906Z,20.53
2019-03-04T07:34:59.897Z,20.48
2019-03-04T07:36:00.000Z,20.53
2019-03-04T07:36:59.876Z,20.49
2019-03-04T07:37:59.864Z,20.50
2019-03-04T07:38:59.853Z,20.49
2019-03-04T07:39:59.848Z,20.48
2019-03-04T07:40:59.835Z,20.46
2019-03-04T07:41:59.930Z,20.55
2019-03-04T07:42:59.810Z,20.48
2019-03-04T07:43:59.814Z,20.52
2019-03-04T07:44:59.788Z,20.52
2019-03-04T07:45:59.793Z,20.55
2019-03-04T07:46:59.768Z,20.52
2019-03-04T07:48:00.340Z,20.50
2019-03-04T07:48:59.746Z,20.50
2019-03-04T07:49:59.737Z,20.50
2019-03-04T07:50:59.727Z,20.58
2019-03-04T07:51:59.718Z,20.50
2019-03-04T07:52:59.710Z,20.53
2019-03-04T07:53:59.898Z,20.53
2019-03-04T07:54:59.685Z,20.66
2019-03-04T07:55:59.678Z,20.53
2019-03-04T07:56:59.661Z,20.63
2019-03-04T07:57:59.649Z,20.63
2019-03-04T07:58:59.641Z,20.59
2019-03-04T07:59:59.725Z,20.59
2019-03-04T08:00:59.616Z,20.59
2019-03-04T08:01:59.607Z,20.58
2019-03-04T08:02:59.602Z,20.58
2019-03-04T08:03:59.585Z,20.70
2019-03-04T08:04:59.575Z,20.63
2019-03-04T08:05:59.670Z,20.67
2019-03-04T08:06:59.556Z,20.68
2019-03-04T08:07:59.542Z,20.67
2019-03-04T08:08:59.535Z,20.63
2019-03-04T08:09:59.522Z,20.64
2019-03-04T08:11:01.154Z,20.66
2019-03-04T08:11:59.825Z,20.63
2019-03-04T08:12:59.491Z,20.66
2019-03-04T08:13:59.479Z,20.56
2019-03-04T08:14:59.475Z,20.58
2019-03-04T08:15:59.457Z,20.60
2019-03-04T08:16:59.444Z,20.64
2019-03-04T08:17:59.524Z,20.59
2019-03-04T08:18:59.425Z,20.53
2019-03-04T08:19:59.413Z,20.63
2019-03-04T08:20:59.406Z,20.59
2019-03-04T08:21:59.393Z,20.53
2019-03-04T08:22:59.384Z,20.64
2019-03-04T08:23:59.465Z,20.63
2019-03-04T08:24:59.367Z,20.59
2019-03-04T08:25:59.353Z,20.55
2019-03-04T08:27:00.336Z,20.58
2019-03-04T08:27:59.331Z,20.68
2019-03-04T08:28:59.319Z,20.64
2019-03-04T08:29:59.524Z,20.59
2019-03-04T08:30:59.298Z,20.67
2019-03-04T08:31:59.290Z,20.66
2019-03-04T08:32:59.279Z,20.70
2019-03-04T08:33:59.266Z,20.71
2019-03-04T08:34:59.255Z,20.68
2019-03-04T08:35:59.541Z,20.60
2019-03-04T08:36:59.234Z,20.66
2019-03-04T08:37:59.229Z,20.70
2019-03-04T08:38:59.213Z,20.67
2019-03-04T08:39:59.202Z,20.70
2019-03-04T08:40:59.192Z,20.71
2019-03-04T08:41:59.280Z,20.66
2019-03-04T08:42:59.172Z,20.68
2019-03-04T08:43:59.165Z,20.68
2019-03-04T08:44:59.148Z,20.60
2019-03-04T08:45:59.143Z,20.66
2019-03-04T08:46:59.126Z,20.63
2019-03-04T08:48:00.514Z,20.70
2019-03-04T08:48:59.105Z,20.64
2019-03-04T08:49:59.096Z,20.67
2019-03-04T08:50:59.082Z,20.59
2019-03-04T08:51:59.076Z,20.60
2019-03-04T08:52:59.063Z,20.53
2019-03-04T08:53:59.248Z,20.63
2019-03-04T08:54:59.042Z,20.49
2019-03-04T08:55:59.030Z,20.59
2019-03-04T08:57:03.882Z,20.60
2019-03-04T08:58:00.009Z,20.56
2019-03-04T08:58:59.002Z,20.56
2019-03-04T08:59:59.085Z,20.50
2019-03-04T09:00:58.982Z,20.64
2019-03-04T09:01:58.967Z,20.56
2019-03-04T09:02:58.960Z,20.55
2019-03-04T09:03:58.947Z,20.60
2019-03-04T09:04:58.934Z,20.55
2019-03-04T09:05:59.027Z,20.60
2019-03-04T09:06:58.913Z,20.56
2019-03-04T09:07:58.903Z,20.58
2019-03-04T09:08:58.891Z,20.59
2019-03-04T09:09:58.877Z,20.59
2019-03-04T09:10:58.868Z,20.59
2019-03-04T09:11:59.059Z,20.63
2019-03-04T09:12:58.850Z,20.67
2019-03-04T09:13:58.838Z,20.64
2019-03-04T09:14:58.826Z,20.59
2019-03-04T09:15:58.820Z,20.60
2019-03-04T09:16:58.803Z,20.63
2019-03-04T09:17:58.987Z,20.59
2019-03-04T09:18:58.783Z,20.56
2019-03-04T09:19:58.771Z,20.55
2019-03-04T09:20:58.764Z,20.53
2019-03-04T09:21:58.753Z,20.53
2019-03-04T09:22:58.740Z,20.50
2019-03-04T09:23:58.837Z,20.52
2019-03-04T09:24:58.718Z,20.46
2019-03-04T09:25:58.708Z,20.55
2019-03-04T09:26:58.698Z,20.52
2019-03-04T09:27:58.688Z,20.49
2019-03-04T09:28:58.677Z,20.56
2019-03-04T09:29:58.986Z,20.48
2019-03-04T09:30:58.656Z,20.46
2019-03-04T09:31:58.645Z,20.44
2019-03-04T09:32:58.631Z,20.42
2019-03-04T09:33:58.623Z,20.36
2019-03-04T09:34:58.626Z,20.36
2019-03-04T09:35:58.700Z,20.40
2019-03-04T09:36:58.588Z,20.44
2019-03-04T09:37:58.585Z,20.40
2019-03-04T09:38:58.567Z,20.32
2019-03-04T09:39:58.562Z,20.32
2019-03-04T09:40:58.551Z,20.44
2019-03-04T09:41:58.630Z,20.40
2019-03-04T09:42:58.526Z,20.39
2019-03-04T09:43:58.515Z,20.34
2019-03-04T09:44:58.506Z,20.24
2019-03-04T09:45:58.496Z,20.39
2019-03-04T09:46:58.486Z,20.26
2019-03-04T09:47:58.791Z,20.27
2019-03-04T09:48:58.461Z,20.33
2019-03-04T09:49:58.452Z,20.29
2019-03-04T09:50:58.442Z,20.27
2019-03-04T09:51:58.432Z,20.22
2019-03-04T09:52:58.418Z,20.27
2019-03-04T09:53:58.531Z,20.27
2019-03-04T09:54:58.400Z,20.36
2019-03-04T09:55:58.388Z,20.33
2019-03-04T09:56:58.377Z,20.40
2019-03-04T09:57:58.382Z,20.37
2019-03-04T09:58:58.361Z,20.27
2019-03-04T09:59:58.460Z,20.36
2019-03-04T10:00:58.386Z,20.36
2019-03-04T10:01:58.325Z,20.24
2019-03-04T10:02:58.315Z,20.27
2019-03-04T10:03:58.301Z,20.22
2019-03-04T10:04:58.294Z,20.26
2019-03-04T10:05:58.376Z,20.24
2019-03-04T10:06:58.281Z,20.32
2019-03-04T10:07:58.257Z,20.24
2019-03-04T10:08:58.247Z,20.24
2019-03-04T10:09:58.240Z,20.26
2019-03-04T10:10:58.227Z,20.30
2019-03-04T10:11:58.311Z,20.26
2019-03-04T10:12:58.204Z,20.26
2019-03-04T10:13:58.196Z,20.32
2019-03-04T10:15:07.554Z,20.30
2019-03-04T10:15:59.172Z,20.33
2019-03-04T10:16:58.163Z,20.22
2019-03-04T10:17:58.413Z,20.22
2019-03-04T10:18:58.141Z,20.26
2019-03-04T10:19:58.136Z,20.26
2019-03-04T10:20:58.122Z,20.26
2019-03-04T10:21:58.112Z,20.26
2019-03-04T10:22:58.099Z,20.36
2019-03-04T10:23:58.420Z,20.36
2019-03-04T10:24:58.078Z,20.40
2019-03-04T10:25:58.072Z,20.34
2019-03-04T10:26:58.058Z,20.49
2019-03-04T10:27:58.045Z,20.49
2019-03-04T10:28:58.034Z,20.44
2019-03-04T10:29:58.126Z,20.50
2019-03-04T10:30:58.016Z,20.46
2019-03-04T10:31:58.006Z,20.48
2019-03-04T10:32:57.992Z,20.50
2019-03-04T10:33:57.983Z,20.50
2019-03-04T10:34:57.969Z,20.53
2019-03-04T10:35:58.124Z,20.46
2019-03-04T10:36:57.949Z,20.49
2019-03-04T10:37:57.941Z,20.55
2019-03-04T10:38:57.930Z,20.63
2019-03-04T10:39:57.919Z,20.60
2019-03-04T10:40:58.149Z,20.64
2019-03-04T10:41:58.226Z,20.68
2019-03-04T10:42:57.886Z,20.60
2019-03-04T10:43:57.875Z,20.68
2019-03-04T10:44:57.863Z,20.75
2019-03-04T10:45:57.857Z,20.77
2019-03-04T10:46:57.840Z,20.73
2019-03-04T10:47:57.936Z,20.77
2019-03-04T10:48:57.821Z,20.74
2019-03-04T10:49:57.812Z,20.80
2019-03-04T10:50:57.799Z,20.82
2019-03-04T10:51:57.790Z,20.78
2019-03-04T10:52:57.804Z,20.80
2019-03-04T10:53:57.951Z,20.80
2019-03-04T10:54:57.761Z,20.88
2019-03-04T10:55:57.776Z,20.83
2019-03-04T10:56:57.734Z,20.80
2019-03-04T10:57:57.729Z,20.82
2019-03-04T10:58:57.714Z,20.74
2019-03-04T10:59:57.809Z,20.80
2019-03-04T11:00:57.693Z,20.78
2019-03-04T11:01:57.685Z,20.77
2019-03-04T11:02:57.676Z,20.82
2019-03-04T11:03:57.664Z,20.80
2019-03-04T11:04:57.656Z,20.89
2019-03-04T11:05:57.744Z,20.82
2019-03-04T11:06:57.650Z,20.85
2019-03-04T11:07:57.617Z,20.78
2019-03-04T11:08:57.605Z,20.80
2019-03-04T11:09:57.606Z,20.75
2019-03-04T11:10:57.591Z,20.82
2019-03-04T11:11:57.755Z,20.77
2019-03-04T11:12:57.579Z,20.78
2019-03-04T11:13:57.561Z,20.85
2019-03-04T11:14:57.561Z,20.82
2019-03-04T11:15:57.532Z,20.78
2019-03-04T11:16:57.525Z,20.80
2019-03-04T11:17:57.605Z,20.78
2019-03-04T11:18:57.500Z,20.83
2019-03-04T11:19:57.490Z,20.92
2019-03-04T11:20:57.479Z,20.88
2019-03-04T11:21:57.468Z,20.92
2019-03-04T11:22:57.459Z,20.90
2019-03-04T11:23:57.557Z,20.96
2019-03-04T11:24:57.435Z,21.03
2019-03-04T11:25:57.426Z,21.13
2019-03-04T11:26:57.415Z,21.22
2019-03-04T11:27:57.404Z,21.28
2019-03-04T11:28:57.396Z,21.35
2019-03-04T11:29:57.586Z,21.43
2019-03-04T11:30:57.373Z,21.54
2019-03-04T11:31:57.363Z,21.59
2019-03-04T11:32:57.349Z,21.70
2019-03-04T11:33:57.342Z,21.70
2019-03-04T11:34:57.336Z,21.83
2019-03-04T11:35:57.516Z,21.91
2019-03-04T11:36:57.307Z,22.00
2019-03-04T11:37:57.301Z,22.07
2019-03-04T11:38:57.286Z,22.06
2019-03-04T11:39:57.280Z,22.15
2019-03-04T11:40:57.266Z,22.12
2019-03-04T11:41:57.349Z,22.19
2019-03-04T11:42:57.243Z,22.21
2019-03-04T11:43:57.232Z,22.26
2019-03-04T11:44:57.222Z,22.30
2019-03-04T11:45:57.213Z,22.40
2019-03-04T11:46:57.204Z,22.38
2019-03-04T11:47:57.320Z,22.37
2019-03-04T11:48:57.182Z,22.46
2019-03-04T11:49:57.169Z,22.52
2019-03-04T11:50:57.159Z,22.53
2019-03-04T11:51:57.151Z,22.56
2019-03-04T11:52:57.146Z,22.61
2019-03-04T11:53:57.441Z,22.63
2019-03-04T11:54:57.115Z,22.71
2019-03-04T11:55:57.105Z,22.76
2019-03-04T11:56:57.106Z,22.84
2019-03-04T11:57:57.092Z,22.76
2019-03-04T11:58:57.075Z,22.76
2019-03-04T11:59:57.234Z,22.83
2019-03-04T12:00:59.203Z,22.83
2019-03-04T12:01:57.041Z,22.84
2019-03-04T12:02:57.034Z,22.74
2019-03-04T12:03:57.043Z,22.88
2019-03-04T12:04:57.016Z,22.74
2019-03-04T12:05:57.105Z,22.92
2019-03-04T12:06:56.990Z,22.73
2019-03-04T12:07:56.983Z,22.81
2019-03-04T12:08:56.970Z,22.74
2019-03-04T12:09:56.954Z,22.70
2019-03-04T12:10:56.994Z,22.65
2019-03-04T12:11:57.040Z,22.63
2019-03-04T12:12:56.926Z,22.46
2019-03-04T12:13:56.912Z,22.46
2019-03-04T12:14:56.928Z,22.44
2019-03-04T12:15:56.941Z,22.46
2019-03-04T12:16:56.882Z,22.47
2019-03-04T12:17:57.050Z,22.49
2019-03-04T12:18:56.857Z,22.41
2019-03-04T12:19:56.845Z,22.46
2019-03-04T12:20:56.838Z,22.43
2019-03-04T12:21:56.828Z,22.40
2019-03-04T12:22:56.816Z,22.47
2019-03-04T12:23:56.900Z,22.36
2019-03-04T12:24:56.792Z,22.40
2019-03-04T12:25:56.791Z,22.40
2019-03-04T12:26:56.774Z,22.43
2019-03-04T12:27:56.768Z,22.37
2019-03-04T12:28:56.752Z,22.37
2019-03-04T12:29:56.841Z,22.40
2019-03-04T12:30:56.729Z,22.37
2019-03-04T12:31:56.720Z,22.33
2019-03-04T12:32:56.708Z,22.36
2019-03-04T12:33:56.705Z,22.36
2019-03-04T12:34:56.688Z,22.34
2019-03-04T12:35:56.937Z,22.33
2019-03-04T12:36:56.666Z,22.36
2019-03-04T12:37:56.652Z,22.38
2019-03-04T12:38:56.645Z,22.34
2019-03-04T12:39:56.631Z,22.31
2019-03-04T12:40:56.621Z,22.40
2019-03-04T12:41:57.035Z,22.38
2019-03-04T12:42:56.601Z,22.41
2019-03-04T12:43:56.590Z,22.36
2019-03-04T12:44:56.590Z,22.44
2019-03-04T12:45:56.569Z,22.43
2019-03-04T12:46:56.556Z,22.44
2019-03-04T12:47:56.670Z,22.44
2019-03-04T12:48:56.538Z,22.46
2019-03-04T12:49:56.528Z,22.47
2019-03-04T12:50:56.520Z,22.58
2019-03-04T12:51:56.507Z,22.52